createdAt,value
2023-04-12T00:00:31.113Z,9.26
2023-04-12T00:02:59.545Z,9.34
2023-04-12T00:05:27.301Z,9.32
2023-04-12T00:07:55.394Z,9.33
2023-04-12T00:10:23.180Z,9.10
2023-04-12T00:12:50.544Z,9.12
2023-04-12T00:15:17.997Z,8.94
2023-04-12T00:17:46.607Z,8.72
2023-04-12T00:20:16.396Z,8.61
2023-04-12T00:22:43.785Z,8.74
2023-04-12T00:25:11.660Z,8.61
2023-04-12T00:27:39.339Z,8.77
2023-04-12T00:30:08.294Z,8.97
2023-04-12T00:32:36.187Z,8.89
2023-04-12T00:35:03.731Z,8.84
2023-04-12T00:37:31.203Z,8.61
2023-04-12T00:39:58.845Z,8.08
2023-04-12T00:42:26.281Z,8.57
2023-04-12T00:44:53.718Z,8.21
2023-04-12T00:47:21.549Z,8.43
2023-04-12T00:49:49.015Z,8.77
2023-04-12T00:52:18.027Z,8.45
2023-04-12T00:54:45.886Z,8.55
2023-04-12T00:57:13.403Z,8.37
2023-04-12T00:59:40.977Z,8.19
2023-04-12T01:02:09.345Z,8.11
2023-04-12T01:04:38.062Z,8.55
2023-04-12T01:07:22.285Z,8.55
2023-04-12T01:10:26.134Z,8.54
2023-04-12T01:13:33.137Z,8.15
2023-04-12T01:16:06.859Z,8.63
2023-04-12T01:18:40.881Z,8.02
2023-04-12T01:21:15.652Z,8.10
2023-04-12T01:23:58.717Z,8.53
2023-04-12T01:26:41.938Z,8.54
2023-04-12T01:29:10.987Z,7.98
2023-04-12T01:31:52.139Z,8.11
2023-04-12T01:34:20.633Z,7.91
2023-04-12T01:36:49.283Z,7.92
2023-04-12T01:39:17.144Z,8.14
2023-04-12T01:41:48.861Z,8.11
2023-04-12T01:44:17.264Z,7.98
2023-04-12T01:46:48.917Z,8.00
2023-04-12T01:49:17.821Z,7.97
2023-04-12T01:52:23.469Z,7.85
2023-04-12T01:54:51.463Z,7.79
2023-04-12T01:57:19.236Z,7.95
2023-04-12T01:59:49.073Z,7.78
2023-04-12T02:02:16.914Z,7.70
2023-04-12T02:04:44.806Z,8.12
2023-04-12T02:07:13.625Z,8.02
2023-04-12T02:09:41.230Z,7.77
2023-04-12T02:12:09.330Z,7.66
2023-04-12T02:14:37.127Z,7.94
2023-04-12T02:17:05.574Z,8.03
2023-04-12T02:19:33.351Z,7.95
2023-04-12T02:22:02.211Z,8.24
2023-04-12T02:24:29.735Z,8.12
2023-04-12T02:26:59.124Z,8.27
2023-04-12T02:29:27.467Z,8.14
2023-04-12T02:31:55.105Z,8.03
2023-04-12T02:34:23.162Z,7.97
2023-04-12T02:36:51.037Z,8.12
2023-04-12T02:39:18.685Z,7.74
2023-04-12T02:41:46.984Z,7.48
2023-04-12T02:44:15.277Z,7.49
2023-04-12T02:46:43.547Z,7.78
2023-04-12T02:49:11.620Z,7.76
2023-04-12T02:51:39.866Z,7.30
2023-04-12T02:54:07.519Z,7.50
2023-04-12T02:56:36.084Z,7.85
2023-04-12T02:59:04.571Z,7.85
2023-04-12T03:01:33.923Z,7.58
2023-04-12T03:04:02.504Z,7.65
2023-04-12T03:06:32.082Z,7.76
2023-04-12T03:09:00.399Z,8.21
2023-04-12T03:11:28.010Z,8.12
2023-04-12T03:13:56.227Z,8.14
2023-04-12T03:16:29.617Z,8.28
2023-04-12T03:18:57.916Z,8.52
2023-04-12T03:21:26.257Z,8.02
2023-04-12T03:23:54.470Z,8.18
2023-04-12T03:26:22.719Z,8.02
2023-04-12T03:28:51.239Z,8.15
2023-04-12T03:31:21.494Z,7.98
2023-04-12T03:33:50.266Z,8.26
2023-04-12T03:36:18.041Z,8.14
2023-04-12T03:38:47.624Z,8.09
2023-04-12T03:41:15.906Z,8.37
2023-04-12T03:43:43.342Z,8.31
2023-04-12T03:46:11.766Z,8.38
2023-04-12T03:48:39.495Z,8.31
2023-04-12T03:51:11.984Z,8.37
2023-04-12T03:53:40.046Z,8.27
2023-04-12T03:56:08.602Z,8.54
2023-04-12T03:58:36.166Z,8.53
2023-04-12T04:01:06.062Z,8.59
2023-04-12T04:03:37.182Z,8.55
2023-04-12T04:06:05.488Z,8.23
2023-04-12T04:08:33.162Z,8.46
2023-04-12T04:11:01.036Z,8.37
2023-04-12T04:13:29.232Z,8.49
2023-04-12T04:16:02.805Z,8.55
2023-04-12T04:18:31.122Z,8.55
2023-04-12T04:20:58.784Z,8.71
2023-04-12T04:23:29.232Z,8.66
2023-04-12T04:25:57.789Z,8.70
2023-04-12T04:28:25.625Z,8.61
2023-04-12T04:30:55.849Z,8.61
2023-04-12T04:33:24.398Z,8.63
2023-04-12T04:35:52.870Z,8.64
2023-04-12T04:38:20.667Z,8.75
2023-04-12T04:40:53.338Z,8.60
2023-04-12T04:43:22.193Z,8.22
2023-04-12T04:45:54.520Z,8.31
2023-04-12T04:48:22.090Z,8.05
2023-04-12T04:50:51.641Z,8.10
2023-04-12T04:53:22.729Z,8.26
2023-04-12T04:55:57.801Z,8.41
2023-04-12T04:58:26.610Z,8.22
2023-04-12T05:00:57.627Z,8.32
2023-04-12T05:03:30.838Z,8.22
2023-04-12T05:06:00.355Z,8.08
2023-04-12T05:08:28.842Z,8.25
2023-04-12T05:10:57.314Z,8.10
2023-04-12T05:13:25.471Z,8.14
2023-04-12T05:15:52.878Z,8.41
2023-04-12T05:18:20.974Z,8.42
2023-04-12T05:20:48.883Z,8.66
2023-04-12T05:23:16.387Z,8.67
2023-04-12T05:25:46.920Z,8.91
2023-04-12T05:28:16.755Z,8.53
2023-04-12T05:30:45.155Z,8.42
2023-04-12T05:33:12.887Z,8.55
2023-04-12T05:35:43.146Z,8.75
2023-04-12T05:38:11.787Z,9.18
2023-04-12T05:40:39.528Z,9.02
2023-04-12T05:43:08.595Z,9.30
2023-04-12T05:45:36.284Z,9.43
2023-04-12T05:48:03.976Z,9.32
2023-04-12T05:50:31.907Z,8.78
2023-04-12T05:53:01.678Z,9.10
2023-04-12T05:55:30.025Z,8.81
2023-04-12T05:57:58.703Z,9.27
2023-04-12T06:00:26.702Z,9.33
2023-04-12T06:02:54.989Z,9.48
2023-04-12T06:05:22.845Z,9.62
2023-04-12T06:07:50.612Z,9.59
2023-04-12T06:10:19.254Z,9.78
2023-04-12T06:12:47.729Z,9.77
2023-04-12T06:15:15.560Z,9.26
2023-04-12T06:17:43.671Z,9.71
2023-04-12T06:20:12.352Z,9.65
2023-04-12T06:22:40.049Z,9.66
2023-04-12T06:25:08.364Z,9.97
2023-04-12T06:27:36.054Z,9.71
2023-04-12T06:30:03.780Z,10.09
2023-04-12T06:32:32.383Z,10.04
2023-04-12T06:35:00.540Z,10.12
2023-04-12T06:37:28.046Z,10.16
2023-04-12T06:39:55.723Z,10.67
2023-04-12T06:42:23.126Z,10.66
2023-04-12T06:44:50.528Z,11.00
2023-04-12T06:47:18.182Z,10.56
2023-04-12T06:49:45.590Z,10.94
2023-04-12T06:52:12.962Z,11.12
2023-04-12T06:54:40.710Z,11.02
2023-04-12T06:57:11.489Z,11.28
2023-04-12T06:59:39.301Z,11.31
2023-04-12T07:02:07.869Z,11.44
2023-04-12T07:04:35.376Z,11.13
2023-04-12T07:07:02.807Z,11.28
2023-04-12T07:09:33.479Z,11.20
2023-04-12T07:12:02.417Z,11.60
2023-04-12T07:14:30.126Z,11.76
2023-04-12T07:16:57.604Z,11.92
2023-04-12T07:19:25.010Z,12.03
2023-04-12T07:21:52.727Z,12.10
2023-04-12T07:24:20.114Z,11.76
2023-04-12T07:26:47.517Z,11.61
2023-04-12T07:29:15.856Z,11.87
2023-04-12T07:31:43.283Z,11.78
2023-04-12T07:34:10.847Z,11.67
2023-04-12T07:36:38.779Z,11.91
2023-04-12T07:39:06.198Z,12.09
2023-04-12T07:41:33.679Z,12.06
2023-04-12T07:44:01.422Z,12.05
2023-04-12T07:46:28.933Z,12.22
2023-04-12T07:48:56.617Z,12.23
2023-04-12T07:51:25.061Z,12.53
2023-04-12T07:53:52.560Z,12.53
2023-04-12T07:56:19.933Z,12.39
2023-04-12T07:58:48.218Z,13.01
2023-04-12T08:01:16.022Z,13.04
2023-04-12T08:03:43.909Z,12.86
2023-04-12T08:06:11.824Z,13.30
2023-04-12T08:08:39.244Z,13.42
2023-04-12T08:11:07.376Z,13.35
2023-04-12T08:13:35.527Z,13.79
2023-04-12T08:16:03.235Z,14.03
2023-04-12T08:18:31.273Z,13.44
2023-04-12T08:20:58.683Z,13.64
2023-04-12T08:23:26.155Z,13.71
2023-04-12T08:26:03.296Z,13.63
2023-04-12T08:28:31.229Z,13.85
2023-04-12T08:30:59.585Z,14.18
2023-04-12T08:33:27.511Z,14.17
2023-04-12T08:35:55.232Z,13.97
2023-04-12T08:38:28.012Z,14.03
2023-04-12T08:41:05.981Z,14.22
2023-04-12T08:43:34.580Z,14.21
2023-04-12T08:46:02.202Z,14.76
2023-04-12T08:48:29.748Z,14.64
2023-04-12T08:51:00.312Z,14.71
2023-04-12T08:53:27.724Z,14.61
2023-04-12T08:55:55.156Z,14.87
2023-04-12T08:58:23.599Z,14.59
2023-04-12T09:00:51.806Z,14.37
2023-04-12T09:03:19.374Z,14.15
2023-04-12T09:05:47.185Z,14.47
2023-04-12T09:08:14.705Z,14.64
2023-04-12T09:10:42.739Z,14.56
2023-04-12T09:13:10.625Z,14.74
2023-04-12T09:15:48.769Z,14.93
2023-04-12T09:18:17.467Z,14.96
2023-04-12T09:20:45.031Z,15.21
2023-04-12T09:23:24.116Z,15.19
2023-04-12T09:25:53.460Z,15.28
2023-04-12T09:28:26.920Z,15.20
2023-04-12T09:30:56.198Z,14.95
2023-04-12T09:33:33.640Z,15.00
2023-04-12T09:36:02.831Z,15.12
2023-04-12T09:38:31.104Z,15.23
2023-04-12T09:41:17.005Z,15.51
2023-04-12T09:43:46.085Z,15.84
2023-04-12T09:46:14.263Z,15.90
2023-04-12T09:48:43.514Z,15.95
2023-04-12T09:51:12.048Z,16.18
2023-04-12T09:53:41.505Z,16.13
2023-04-12T09:56:09.516Z,15.76
2023-04-12T09:58:38.835Z,15.62
2023-04-12T10:01:09.459Z,15.91
2023-04-12T10:03:38.847Z,16.31
2023-04-12T10:06:06.910Z,16.03
2023-04-12T10:08:34.485Z,16.35
2023-04-12T10:11:02.732Z,16.63
2023-04-12T10:13:32.834Z,16.59
2023-04-12T10:16:00.898Z,16.72
2023-04-12T10:18:28.954Z,16.36
2023-04-12T10:20:57.980Z,16.11
2023-04-12T10:23:26.120Z,16.35
2023-04-12T10:25:57.033Z,16.38
2023-04-12T10:28:25.355Z,16.53
2023-04-12T10:30:57.356Z,16.06
2023-04-12T10:33:27.373Z,16.18
2023-04-12T10:36:00.839Z,16.58
2023-04-12T10:38:34.590Z,16.65
2023-04-12T10:41:18.199Z,16.66
2023-04-12T10:43:46.421Z,16.17
2023-04-12T10:46:39.261Z,16.17
2023-04-12T10:49:09.613Z,16.60
2023-04-12T10:51:37.603Z,16.62
2023-04-12T10:54:08.399Z,16.70
2023-04-12T10:56:40.711Z,16.64
2023-04-12T10:59:08.643Z,16.93
2023-04-12T11:01:39.604Z,17.10
2023-04-12T11:04:07.413Z,16.92
2023-04-12T11:06:49.479Z,16.96
2023-04-12T11:09:29.541Z,17.26
2023-04-12T11:11:58.022Z,17.11
2023-04-12T11:14:31.209Z,16.89
2023-04-12T11:17:17.142Z,17.08
2023-04-12T11:19:52.243Z,16.94
2023-04-12T11:22:21.662Z,16.93
2023-04-12T11:24:51.313Z,17.29
2023-04-12T11:27:20.539Z,17.21
2023-04-12T11:29:49.718Z,16.71
2023-04-12T11:32:17.612Z,17.06
2023-04-12T11:34:47.238Z,17.29
2023-04-12T11:37:15.162Z,17.45
2023-04-12T11:39:43.813Z,17.20
2023-04-12T11:42:16.077Z,17.57
2023-04-12T11:44:56.429Z,17.57
2023-04-12T11:47:26.017Z,17.38
2023-04-12T11:49:58.345Z,17.77
2023-04-12T11:52:30.313Z,17.81
2023-04-12T11:55:01.319Z,17.86
2023-04-12T11:57:29.290Z,17.71
2023-04-12T11:59:59.150Z,17.66
2023-04-12T12:02:30.241Z,17.68
2023-04-12T12:04:59.932Z,17.83
2023-04-12T12:07:27.875Z,18.20
2023-04-12T12:09:55.794Z,17.96
2023-04-12T12:12:24.125Z,17.55
2023-04-12T12:14:51.758Z,17.55
2023-04-12T12:17:19.464Z,17.84
2023-04-12T12:19:47.198Z,18.08
2023-04-12T12:22:19.304Z,17.88
2023-04-12T12:24:49.981Z,17.99
2023-04-12T12:27:37.860Z,17.97
2023-04-12T12:30:10.121Z,18.07
2023-04-12T12:32:39.413Z,18.34
2023-04-12T12:35:13.944Z,18.03
2023-04-12T12:37:53.251Z,17.61
2023-04-12T12:40:30.448Z,17.41
2023-04-12T12:42:58.195Z,17.62
2023-04-12T12:45:27.573Z,17.58
2023-04-12T12:47:56.044Z,17.83
2023-04-12T12:50:25.298Z,17.86
2023-04-12T12:52:53.715Z,17.99
2023-04-12T12:55:22.982Z,17.87
2023-04-12T12:58:07.449Z,18.14
2023-04-12T13:00:36.603Z,18.11
2023-04-12T13:03:04.770Z,18.05
2023-04-12T13:05:32.595Z,18.00
2023-04-12T13:08:00.402Z,17.91
2023-04-12T13:10:27.875Z,18.09
2023-04-12T13:12:55.278Z,18.11
2023-04-12T13:15:24.542Z,18.32
2023-04-12T13:17:53.084Z,18.29
2023-04-12T13:20:23.832Z,18.31
2023-04-12T13:22:54.321Z,18.45
2023-04-12T13:25:21.848Z,18.63
2023-04-12T13:27:49.598Z,18.73
2023-04-12T13:30:20.463Z,18.52
2023-04-12T13:32:47.914Z,18.15
2023-04-12T13:35:15.453Z,18.45
2023-04-12T13:37:43.178Z,18.46
2023-04-12T13:40:10.962Z,18.49
2023-04-12T13:42:38.653Z,18.53
2023-04-12T13:45:07.621Z,18.50
2023-04-12T13:47:35.410Z,18.53
2023-04-12T13:50:02.908Z,18.44
2023-04-12T13:52:30.930Z,18.42
2023-04-12T13:54:59.618Z,18.71
2023-04-12T13:57:27.084Z,18.90
2023-04-12T13:59:54.788Z,19.09
2023-04-12T14:02:22.477Z,19.15
2023-04-12T14:04:52.629Z,19.04
2023-04-12T14:07:20.119Z,18.64
2023-04-12T14:09:48.605Z,18.84
2023-04-12T14:12:16.540Z,18.91
2023-04-12T14:14:44.159Z,18.38
2023-04-12T14:17:11.821Z,18.78
2023-04-12T14:19:39.820Z,18.83
2023-04-12T14:22:07.178Z,18.84
2023-04-12T14:24:34.573Z,18.98
2023-04-12T14:27:02.475Z,18.90
2023-04-12T14:29:29.937Z,18.81
2023-04-12T14:31:57.379Z,18.88
2023-04-12T14:34:25.130Z,18.88
2023-04-12T14:36:52.467Z,18.91
2023-04-12T14:39:20.110Z,18.73
2023-04-12T14:41:47.800Z,18.45
2023-04-12T14:44:15.642Z,18.64
2023-04-12T14:46:44.150Z,18.66
2023-04-12T14:49:11.915Z,18.76
2023-04-12T14:51:39.318Z,18.77
2023-04-12T14:54:06.722Z,18.22
2023-04-12T14:56:42.242Z,18.39
2023-04-12T14:59:13.397Z,18.61
2023-04-12T15:01:41.714Z,18.52
2023-04-12T15:04:09.664Z,18.57
2023-04-12T15:06:42.357Z,18.56
2023-04-12T15:09:10.305Z,18.52
2023-04-12T15:11:38.239Z,18.40
2023-04-12T15:14:09.151Z,18.26
2023-04-12T15:16:38.196Z,18.07
2023-04-12T15:19:13.105Z,17.73
2023-04-12T15:21:44.178Z,17.95
2023-04-12T15:24:11.630Z,18.02
2023-04-12T15:26:39.004Z,18.20
2023-04-12T15:29:08.480Z,18.25
2023-04-12T15:31:35.917Z,18.18
2023-04-12T15:34:03.375Z,18.17
2023-04-12T15:36:36.404Z,18.08
2023-04-12T15:39:04.931Z,18.10
2023-04-12T15:41:38.887Z,18.10
2023-04-12T15:44:07.751Z,17.89
2023-04-12T15:46:36.289Z,17.99
2023-04-12T15:49:04.184Z,18.03
2023-04-12T15:51:32.400Z,17.93
2023-04-12T15:54:00.551Z,17.84
2023-04-12T15:56:29.685Z,17.64
2023-04-12T15:58:57.982Z,17.37
2023-04-12T16:01:25.906Z,17.35
2023-04-12T16:03:54.015Z,17.61
2023-04-12T16:06:21.699Z,17.68
2023-04-12T16:08:51.525Z,17.71
2023-04-12T16:11:21.275Z,17.56
2023-04-12T16:13:49.762Z,17.65
2023-04-12T16:16:18.573Z,17.32
2023-04-12T16:18:46.811Z,17.40
2023-04-12T16:21:19.620Z,17.44
2023-04-12T16:23:48.384Z,17.40
2023-04-12T16:26:21.689Z,17.22
2023-04-12T16:28:52.854Z,17.15
2023-04-12T16:31:21.199Z,17.07
2023-04-12T16:33:49.677Z,17.20
2023-04-12T16:36:17.981Z,17.16
2023-04-12T16:38:45.796Z,17.13
2023-04-12T16:41:13.373Z,17.20
2023-04-12T16:43:42.703Z,17.23
2023-04-12T16:46:12.552Z,17.17
2023-04-12T16:48:41.270Z,17.09
2023-04-12T16:51:09.094Z,17.27
2023-04-12T16:53:36.661Z,17.11
2023-04-12T16:56:04.681Z,17.11
2023-04-12T16:58:33.346Z,17.12
2023-04-12T17:01:01.860Z,17.20
2023-04-12T17:03:30.218Z,17.18
2023-04-12T17:05:58.187Z,17.21
2023-04-12T17:08:25.898Z,17.07
2023-04-12T17:10:54.395Z,17.03
2023-04-12T17:13:22.088Z,17.04
2023-04-12T17:15:49.597Z,16.96
2023-04-12T17:18:17.069Z,16.86
2023-04-12T17:20:45.338Z,16.92
2023-04-12T17:23:13.536Z,16.73
2023-04-12T17:25:41.888Z,16.64
2023-04-12T17:28:09.677Z,16.64
2023-04-12T17:30:37.148Z,16.58
2023-04-12T17:33:05.062Z,16.51
2023-04-12T17:35:32.789Z,16.31
2023-04-12T17:38:00.232Z,16.26
2023-04-12T17:40:27.594Z,16.23
2023-04-12T17:42:55.320Z,16.21
2023-04-12T17:45:25.794Z,16.15
2023-04-12T17:47:54.660Z,16.04
2023-04-12T17:50:22.537Z,15.90
2023-04-12T17:52:50.425Z,15.81
2023-04-12T17:55:23.165Z,15.72
2023-04-12T17:57:51.075Z,15.53
2023-04-12T18:00:20.207Z,15.50
2023-04-12T18:02:47.776Z,15.28
2023-04-12T18:05:15.598Z,15.27
2023-04-12T18:07:43.150Z,15.14
2023-04-12T18:10:13.059Z,15.14
2023-04-12T18:12:41.184Z,15.09
2023-04-12T18:15:09.227Z,14.75
2023-04-12T18:17:36.901Z,14.85
2023-04-12T18:20:09.762Z,14.84
2023-04-12T18:22:38.001Z,14.77
2023-04-12T18:25:07.578Z,14.72
2023-04-12T18:27:35.195Z,14.71
2023-04-12T18:30:03.488Z,14.57
2023-04-12T18:32:31.524Z,14.37
2023-04-12T18:34:59.010Z,14.36
2023-04-12T18:37:27.120Z,14.36
2023-04-12T18:39:55.422Z,14.25
2023-04-12T18:42:22.982Z,14.16
2023-04-12T18:44:51.224Z,14.10
2023-04-12T18:47:18.988Z,14.07
2023-04-12T18:49:46.403Z,14.05
2023-04-12T18:52:13.847Z,14.00
2023-04-12T18:54:41.709Z,13.82
2023-04-12T18:57:09.212Z,13.81
2023-04-12T18:59:36.703Z,13.76
2023-04-12T19:02:04.549Z,13.66
2023-04-12T19:04:32.224Z,13.50
2023-04-12T19:06:59.601Z,13.56
2023-04-12T19:09:27.335Z,13.60
2023-04-12T19:11:56.287Z,13.57
2023-04-12T19:14:25.223Z,13.46
2023-04-12T19:16:53.072Z,13.30
2023-04-12T19:19:20.834Z,13.30
2023-04-12T19:21:48.243Z,13.31
2023-04-12T19:24:16.207Z,13.38
2023-04-12T19:26:47.073Z,13.09
2023-04-12T19:29:19.589Z,13.12
2023-04-12T19:31:47.662Z,12.87
2023-04-12T19:34:18.201Z,12.93
2023-04-12T19:36:45.804Z,12.93
2023-04-12T19:39:13.595Z,13.05
2023-04-12T19:41:41.091Z,13.04
2023-04-12T19:44:08.692Z,13.01
2023-04-12T19:46:38.786Z,13.07
2023-04-12T19:49:06.714Z,12.97
2023-04-12T19:51:34.669Z,12.86
2023-04-12T19:54:02.889Z,12.76
2023-04-12T19:56:31.378Z,12.82
2023-04-12T19:58:59.940Z,12.90
2023-04-12T20:01:27.962Z,12.93
2023-04-12T20:03:55.691Z,12.78
2023-04-12T20:06:23.229Z,12.66
2023-04-12T20:08:51.209Z,12.55
2023-04-12T20:11:18.907Z,12.62
2023-04-12T20:13:46.619Z,12.70
2023-04-12T20:16:14.136Z,12.62
2023-04-12T20:18:42.086Z,12.54
2023-04-12T20:21:10.250Z,12.57
2023-04-12T20:23:37.980Z,12.45
2023-04-12T20:26:05.680Z,12.40
2023-04-12T20:28:33.118Z,12.43
2023-04-12T20:31:00.767Z,12.37
2023-04-12T20:33:29.303Z,12.24
2023-04-12T20:35:56.665Z,12.24
2023-04-12T20:38:24.204Z,12.18
2023-04-12T20:40:52.334Z,12.12
2023-04-12T20:43:20.323Z,12.09
2023-04-12T20:45:48.780Z,12.05
2023-04-12T20:48:18.348Z,12.03
2023-04-12T20:50:46.596Z,12.07
2023-04-12T20:53:15.773Z,11.99
2023-04-12T20:55:46.488Z,11.98
2023-04-12T20:58:14.464Z,11.93
2023-04-12T21:00:41.913Z,11.89
2023-04-12T21:03:10.880Z,11.93
2023-04-12T21:05:38.706Z,11.84
2023-04-12T21:08:07.568Z,11.79
2023-04-12T21:10:35.308Z,11.74
2023-04-12T21:13:03.023Z,11.78
2023-04-12T21:15:31.834Z,11.61
2023-04-12T21:17:59.594Z,11.62
2023-04-12T21:20:27.363Z,11.64
2023-04-12T21:22:54.827Z,11.56
2023-04-12T21:25:22.851Z,11.56
2023-04-12T21:27:50.429Z,11.48
2023-04-12T21:30:17.808Z,11.49
2023-04-12T21:32:45.559Z,11.47
2023-04-12T21:35:13.635Z,11.51
2023-04-12T21:37:41.002Z,11.56
2023-04-12T21:40:12.659Z,11.47
2023-04-12T21:42:40.768Z,11.43
2023-04-12T21:45:09.483Z,11.34
2023-04-12T21:47:39.464Z,11.28
2023-04-12T21:50:08.503Z,11.33
2023-04-12T21:52:37.009Z,11.26
2023-04-12T21:55:05.738Z,11.20
2023-04-12T21:57:34.191Z,11.12
2023-04-12T22:00:05.701Z,11.17
2023-04-12T22:02:39.577Z,11.13
2023-04-12T22:05:07.676Z,11.18
2023-04-12T22:07:35.291Z,11.13
2023-04-12T22:10:02.924Z,11.13
2023-04-12T22:12:33.758Z,11.18
2023-04-12T22:15:01.116Z,11.04
2023-04-12T22:17:29.947Z,11.08
2023-04-12T22:19:58.165Z,11.11
2023-04-12T22:22:29.116Z,11.04
2023-04-12T22:24:56.516Z,11.12
2023-04-12T22:27:26.472Z,11.04
2023-04-12T22:29:54.064Z,11.02
2023-04-12T22:32:21.949Z,10.94
2023-04-12T22:34:57.832Z,10.94
2023-04-12T22:37:32.993Z,11.03
2023-04-12T22:40:06.437Z,11.03
2023-04-12T22:42:33.804Z,10.95
2023-04-12T22:45:02.462Z,10.96
2023-04-12T22:47:30.377Z,10.95
2023-04-12T22:50:01.434Z,10.78
2023-04-12T22:52:32.040Z,10.87
2023-04-12T22:54:59.450Z,10.81
2023-04-12T22:57:27.413Z,10.89
2023-04-12T22:59:55.113Z,11.01
2023-04-12T23:02:22.582Z,10.99
2023-04-12T23:04:51.558Z,11.06
2023-04-12T23:07:19.287Z,11.06
2023-04-12T23:09:46.642Z,11.14
2023-04-12T23:12:14.400Z,11.12
2023-04-12T23:14:42.067Z,11.09
2023-04-12T23:17:09.452Z,11.20
2023-04-12T23:19:36.891Z,11.19
2023-04-12T23:22:05.106Z,11.24
2023-04-12T23:24:32.502Z,11.36
2023-04-12T23:27:00.345Z,11.37
2023-04-12T23:29:28.044Z,11.21
2023-04-12T23:31:55.586Z,11.27
2023-04-12T23:34:23.059Z,11.42
2023-04-12T23:36:50.743Z,11.44
2023-04-12T23:39:18.292Z,11.52
2023-04-12T23:41:46.593Z,11.47
2023-04-12T23:44:14.293Z,11.48
2023-04-12T23:46:41.757Z,11.48
2023-04-12T23:49:09.194Z,11.51
2023-04-12T23:51:37.069Z,11.59
2023-04-12T23:54:04.492Z,11.53
2023-04-12T23:56:32.061Z,11.51
2023-04-12T23:58:59.861Z,11.67
